CW6883 Weather Reports


time (UTC)temp
C
wind
direction
speed
KPH
gust
KPH
rain 1hr
cm
rain 24hr
cm
rain mn
cm
humidity
%
barometer
mb
20191115175310 3 259 0.0 0.0 0.00 0.00 0.00 88 1003.1
20191115173311 3 255 0.0 0.0 0.00 0.00 0.00 87 1002.8
20191115172310 4 255 0.0 0.0 0.00 0.00 0.00 87 1002.7
20191115171310 4 255 0.0 0.0 0.00 0.00 0.00 87 1002.7
20191115165310 4 259 0.0 0.0 0.00 0.00 0.00 85 1002.7
20191115164311 5 259 0.0 0.0 0.00 0.00 0.00 84 1002.6
20191115163310 5 255 0.0 0.0 0.00 0.00 0.00 83 1002.5
20191115162310 5 259 0.0 0.0 0.00 0.00 0.00 81 1002.4
20191115161310 5 259 0.0 0.0 0.00 0.00 0.00 80 1002.3
20191115160310 6 255 0.0 0.0 0.00 0.00 0.00 80 1002.2
20191115153310 6 255 0.0 0.0 0.00 0.00 0.00 78 1002.2
20191115152313 6 259 0.0 0.0 0.00 0.00 0.00 76 1002.3
20191115150310 7 259 0.0 0.0 0.00 0.00 0.00 73 1002.0
20191115145311 7 255 0.0 0.0 0.00 0.00 0.00 72 1002.0
20191115144314 7 255 0.0 0.0 0.00 0.00 0.00 71 1002.0
20191115143310 7 259 0.0 0.0 0.00 0.00 0.00 70 1001.9
20191115142310 8 259 0.0 0.0 0.00 0.00 0.00 70 1001.4
20191115134310 8 259 0.0 0.0 0.00 0.00 0.00 70 1001.5
20191115133310 8 255 0.0 0.0 0.00 0.00 0.00 70 1001.3
20191115131310 8 259 0.0 0.0 0.00 0.00 0.00 71 1001.1
20191115125310 8 255 0.0 0.0 0.00 0.00 0.00 73 1001.1
20191115124311 7 255 0.0 0.0 0.00 0.00 0.00 74 1001.0
20191115122310 6 259 0.0 0.0 0.00 0.00 0.00 79 1001.3
20191115115310 6 259 0.0 0.0 0.00 0.00 0.00 81 1001.3
20191115113310 6 255 0.0 0.0 0.00 0.00 0.00 81 1000.8
20191115112310 6 259 0.0 0.0 0.00 0.00 0.00 82 1000.7
20191115110310 5 255 0.0 0.0 0.00 0.00 0.00 84 1000.9
20191115105310 5 259 0.0 0.0 0.00 0.00 0.00 84 1000.9
20191115104310 5 255 0.0 0.0 0.00 0.00 0.00 84 1000.6
20191115103310 5 259 0.0 0.0 0.00 0.00 0.00 84 1000.5
20191115102310 5 259 0.0 0.0 0.00 0.00 0.00 85 1000.3
20191115101310 5 259 0.0 0.0 0.00 0.00 0.00 85 1000.2
20191115100310 5 259 0.0 0.0 0.00 0.00 0.00 85 1000.5
20191115095310 4 255 0.0 0.0 0.00 0.00 0.00 86 1000.5
20191115094310 4 255 0.0 0.0 0.00 0.00 0.00 86 999.9
20191115093310 4 250 0.0 0.0 0.00 0.00 0.00 87 1000.1
20191115092310 4 250 0.0 0.0 0.00 0.00 0.00 87 999.7
20191115090310 4 250 0.0 0.0 0.00 0.00 0.00 87 999.8
20191115085310 3 255 0.0 1.6 0.00 0.00 0.00 87 999.7
20191115084311 3 255 0.0 4.8 0.00 0.00 0.00 87 999.4
20191115082310 3 259 0.0 0.0 0.00 0.00 0.00 87 998.9
20191115081315 3 255 0.0 0.0 0.00 0.00 0.00 87 998.9
20191115080311 3 255 0.0 0.0 0.00 0.00 0.00 87 998.7
20191115075310 3 255 0.0 0.0 0.00 0.00 0.00 87 998.7
20191115073310 3 255 0.0 0.0 0.00 0.00 0.00 87 998.2
20191115072310 3 259 0.0 0.0 0.00 0.00 0.00 87 998.1
20191115064310 2 259 1.6 16.1 0.00 0.00 0.00 87 996.7
20191115061310 2 255 0.0 0.0 0.00 0.00 0.00 86 993.8
20191115055310 2 255 3.2 11.3 0.00 0.00 0.00 85 993.4
20191115052310 2 259 8.0 17.7 0.00 0.00 0.00 85 993.8
20191115051310 2 255 9.7 17.7 0.00 0.00 0.00 85 993.9
20191115050310 3 255 8.0 19.3 0.00 0.00 0.00 85 993.7
20191115044310 3 255 6.4 16.1 0.00 0.00 0.00 85 993.5
20191115043310 3 255 9.7 29.0 0.00 0.00 0.00 85 993.6
20191115042310 3 255 8.0 22.5 0.00 0.00 0.00 85 993.7
20191115035310 3 255 11.3 24.1 0.00 0.00 0.00 85 994.5
20191115031310 3 255 8.0 22.5 0.00 0.00 0.00 86 994.8
20191115025310 3 255 11.3 25.7 0.00 0.00 0.00 85 995.0
20191115024310 3 255 11.3 25.7 0.00 0.00 0.00 85 995.1
20191115023311 3 259 9.7 22.5 0.00 0.00 0.00 85 995.3
20191115022310 3 255 12.9 29.0 0.00 0.00 0.00 85 995.3
20191115021311 3 259 11.3 30.6 0.00 0.00 0.00 85 995.4
20191115015310 3 255 3.2 17.7 0.00 0.00 0.00 85 995.8
20191115013311 3 255 1.6 8.0 0.00 0.00 0.00 85 996.1
20191115012310 3 255 1.6 25.7 0.00 0.00 0.00 84 996.0
20191115011315 3 255 1.6 14.5 0.00 0.00 0.00 84 995.8
20191115010311 4 255 0.0 4.8 0.00 0.00 0.00 84 996.5
20191115005310 4 255 1.6 4.8 0.00 0.00 0.00 84 996.9
20191115002310 4 260 1.6 17.7 0.00 0.00 0.00 83 996.6
20191114232310 4 255 0.0 4.8 0.00 0.00 0.00 81 997.5
20191114231310 4 255 0.0 1.6 0.00 0.00 0.00 81 997.9
20191114225310 4 255 1.6 9.7 0.00 0.00 0.00 80 997.1
20191114224310 4 255 1.6 14.5 0.00 0.00 0.00 80 997.0
20191114223310 4 255 1.6 8.0 0.00 0.00 0.00 79 997.2
20191114222310 4 255 0.0 4.8 0.00 0.00 0.00 79 997.5
20191114221311 5 255 0.0 8.0 0.00 0.00 0.00 78 997.8
20191114220312 5 255 0.0 4.8 0.00 0.00 0.00 78 998.0
20191114215310 5 255 0.0 4.8 0.00 0.00 0.00 77 998.0
20191114214310 5 255 0.0 4.8 0.00 0.00 0.00 76 997.9
20191114213311 5 255 0.0 0.0 0.00 0.00 0.00 76 997.9
20191114210310 5 255 1.6 8.0 0.00 0.00 0.00 76 997.7
20191114203310 5 255 0.0 3.2 0.00 0.00 0.00 76 998.0
20191114202310 5 255 1.6 9.7 0.00 0.00 0.00 76 998.0
20191114201310 5 255 3.2 16.1 0.00 0.00 0.00 76 997.9
20191114194310 5 255 1.6 9.7 0.00 0.00 0.00 78 998.4
20191114193310 5 255 3.2 11.3 0.00 0.00 0.00 78 998.5
20191114182310 5 255 0.0 3.2 0.00 0.00 0.00 78 999.0